Philadelphia, Pennsylvania
Traffic Map
Current Weather Conditions
Philadelphia, Pennsylvania
Overcast
Overcast
75°
Feels Like: 75°
Wind Chill: 75° Ceiling: 1100
Heat Index: 75° Visibility: 10mi
Dew Point: 71° Wind: 5mph
Humidity: 87% Direction: 30° (NNE)
Pressure: 29.88in Gusts: 0mph
Raw Report DataKPHL 290454Z 03004KT 10SM BKN011 BKN039 OVC050 24/22 A2988 RMK AO2 SLP116 T02390217 402890217 $
Traffic Incident Summary
Active as of:
Severity:
Category:
InformationThere was an issue retrieving the traffic information for this location. Please try a different location or try again shortly.
Advertisements
Track Severe Weather on mobile